createdAt,value
2018-07-10T00:00:09.152Z,1012.63
2018-07-10T00:01:09.150Z,1012.63
2018-07-10T00:02:09.153Z,1012.61
2018-07-10T00:03:09.151Z,1012.60
2018-07-10T00:04:09.155Z,1012.64
2018-07-10T00:05:09.151Z,1012.61
2018-07-10T00:06:09.152Z,1012.61
2018-07-10T00:07:09.155Z,1012.61
2018-07-10T00:08:09.205Z,1012.58
2018-07-10T00:09:09.150Z,1012.60
2018-07-10T00:10:09.153Z,1012.58
2018-07-10T00:11:09.154Z,1012.57
2018-07-10T00:12:09.203Z,1012.57
2018-07-10T00:13:09.158Z,1012.56
2018-07-10T00:14:09.151Z,1012.57
2018-07-10T00:15:09.154Z,1012.54
2018-07-10T00:16:09.152Z,1012.57
2018-07-10T00:17:09.161Z,1012.54
2018-07-10T00:18:09.155Z,1012.56
2018-07-10T00:19:09.155Z,1012.54
2018-07-10T00:20:09.160Z,1012.52
2018-07-10T00:21:09.157Z,1012.52
2018-07-10T00:22:09.152Z,1012.51
2018-07-10T00:23:09.161Z,1012.52
2018-07-10T00:24:09.157Z,1012.54
2018-07-10T00:25:09.158Z,1012.53
2018-07-10T00:26:09.157Z,1012.54
2018-07-10T00:27:09.157Z,1012.48
2018-07-10T00:28:09.158Z,1012.44
2018-07-10T00:29:09.158Z,1012.41
2018-07-10T00:30:09.164Z,1012.41
2018-07-10T00:31:09.158Z,1012.45
2018-07-10T00:32:09.158Z,1012.47
2018-07-10T00:33:09.159Z,1012.49
2018-07-10T00:34:09.158Z,1012.51
2018-07-10T00:35:09.159Z,1012.47
2018-07-10T00:36:09.159Z,1012.45
2018-07-10T00:37:09.159Z,1012.45
2018-07-10T00:38:09.159Z,1012.48
2018-07-10T00:39:09.167Z,1012.51
2018-07-10T00:40:09.175Z,1012.53
2018-07-10T00:41:09.156Z,1012.53
2018-07-10T00:42:09.163Z,1012.55
2018-07-10T00:43:09.157Z,1012.55
2018-07-10T00:44:09.158Z,1012.52
2018-07-10T00:45:09.160Z,1012.55
2018-07-10T00:46:09.160Z,1012.49
2018-07-10T00:47:09.158Z,1012.52
2018-07-10T00:48:09.157Z,1012.53
2018-07-10T00:49:09.160Z,1012.49
2018-07-10T00:50:09.157Z,1012.48
2018-07-10T00:51:09.157Z,1012.40
2018-07-10T00:52:09.156Z,1012.33
2018-07-10T00:53:09.162Z,1012.28
2018-07-10T00:54:09.156Z,1012.26
2018-07-10T00:55:09.157Z,1012.25
2018-07-10T00:56:09.155Z,1012.30
2018-07-10T00:57:09.157Z,1012.28
2018-07-10T00:58:09.157Z,1012.29
2018-07-10T00:59:09.150Z,1012.33
2018-07-10T01:00:09.153Z,1012.34
2018-07-10T01:01:09.158Z,1012.41
2018-07-10T01:02:09.155Z,1012.38
2018-07-10T01:03:09.154Z,1012.36
2018-07-10T01:04:09.155Z,1012.31
2018-07-10T01:05:09.152Z,1012.28
2018-07-10T01:06:09.154Z,1012.28
2018-07-10T01:07:09.154Z,1012.29
2018-07-10T01:08:09.156Z,1012.29
2018-07-10T01:09:09.162Z,1012.32
2018-07-10T01:10:09.151Z,1012.32
2018-07-10T01:11:09.149Z,1012.29
2018-07-10T01:12:09.154Z,1012.31
2018-07-10T01:13:09.154Z,1012.32
2018-07-10T01:14:09.155Z,1012.32
2018-07-10T01:15:09.157Z,1012.31
2018-07-10T01:16:09.153Z,1012.29
2018-07-10T01:17:09.153Z,1012.29
2018-07-10T01:18:09.161Z,1012.26
2018-07-10T01:19:09.163Z,1012.28
2018-07-10T01:20:09.151Z,1012.29
2018-07-10T01:21:09.148Z,1012.30
2018-07-10T01:22:09.150Z,1012.24
2018-07-10T01:23:09.154Z,1012.23
2018-07-10T01:24:09.152Z,1012.19
2018-07-10T01:25:09.148Z,1012.17
2018-07-10T01:26:09.151Z,1012.12
2018-07-10T01:27:09.151Z,1012.07
2018-07-10T01:28:09.149Z,1012.09
2018-07-10T01:29:09.146Z,1012.02
2018-07-10T01:30:09.149Z,1012.03
2018-07-10T01:31:09.150Z,1012.01
2018-07-10T01:32:09.150Z,1012.00
2018-07-10T01:33:09.149Z,1012.02
2018-07-10T01:34:09.149Z,1012.02
2018-07-10T01:35:09.149Z,1012.03
2018-07-10T01:36:09.149Z,1012.05
2018-07-10T01:37:09.150Z,1012.05
2018-07-10T01:38:09.151Z,1012.06
2018-07-10T01:39:09.149Z,1012.04
2018-07-10T01:40:09.149Z,1012.06
2018-07-10T01:41:09.148Z,1012.06
2018-07-10T01:42:09.149Z,1012.08
2018-07-10T01:43:09.148Z,1012.03
2018-07-10T01:44:09.145Z,1012.00
2018-07-10T01:45:09.147Z,1012.00
2018-07-10T01:46:09.147Z,1011.95
2018-07-10T01:47:09.149Z,1011.91
2018-07-10T01:48:09.149Z,1011.86
2018-07-10T01:49:09.156Z,1011.80
2018-07-10T01:50:09.147Z,1011.75
2018-07-10T01:51:09.151Z,1011.75
2018-07-10T01:52:09.148Z,1011.77
2018-07-10T01:53:09.146Z,1011.81
2018-07-10T01:54:09.144Z,1011.83
2018-07-10T01:55:09.148Z,1011.86
2018-07-10T01:56:09.149Z,1011.82
2018-07-10T01:57:09.148Z,1011.82
2018-07-10T01:58:09.149Z,1011.81
2018-07-10T01:59:09.146Z,1011.83
2018-07-10T02:00:09.147Z,1011.82
2018-07-10T02:01:09.152Z,1011.81
2018-07-10T02:02:09.145Z,1011.75
2018-07-10T02:03:09.151Z,1011.72
2018-07-10T02:04:09.151Z,1011.68
2018-07-10T02:05:09.148Z,1011.66
2018-07-10T02:06:09.148Z,1011.66
2018-07-10T02:07:09.150Z,1011.65
2018-07-10T02:08:09.150Z,1011.63
2018-07-10T02:09:09.150Z,1011.65
2018-07-10T02:10:09.148Z,1011.67
2018-07-10T02:11:09.158Z,1011.66
2018-07-10T02:12:09.148Z,1011.68
2018-07-10T02:13:09.149Z,1011.65
2018-07-10T02:14:09.195Z,1011.60
2018-07-10T02:15:09.165Z,1011.60
2018-07-10T02:16:09.157Z,1011.58
2018-07-10T02:17:09.148Z,1011.61
2018-07-10T02:18:09.144Z,1011.65
2018-07-10T02:19:09.149Z,1011.67
2018-07-10T02:20:09.149Z,1011.62
2018-07-10T02:21:09.147Z,1011.64
2018-07-10T02:22:09.148Z,1011.65
2018-07-10T02:23:09.154Z,1011.66
2018-07-10T02:24:09.155Z,1011.65
2018-07-10T02:25:09.148Z,1011.64
2018-07-10T02:26:09.144Z,1011.61
2018-07-10T02:27:09.151Z,1011.63
2018-07-10T02:28:09.148Z,1011.65
2018-07-10T02:29:09.147Z,1011.66
2018-07-10T02:30:09.150Z,1011.65
2018-07-10T02:31:09.148Z,1011.59
2018-07-10T02:32:09.158Z,1011.57
2018-07-10T02:33:09.148Z,1011.57
2018-07-10T02:34:09.148Z,1011.57
2018-07-10T02:35:09.146Z,1011.50
2018-07-10T02:36:09.151Z,1011.46
2018-07-10T02:37:09.147Z,1011.49
2018-07-10T02:38:09.147Z,1011.50
2018-07-10T02:39:09.152Z,1011.52
2018-07-10T02:40:09.148Z,1011.54
2018-07-10T02:41:09.147Z,1011.59
2018-07-10T02:42:09.145Z,1011.60
2018-07-10T02:43:09.145Z,1011.63
2018-07-10T02:44:09.141Z,1011.63
2018-07-10T02:45:09.143Z,1011.66
2018-07-10T02:46:09.147Z,1011.63
2018-07-10T02:47:09.142Z,1011.64
2018-07-10T02:48:09.140Z,1011.63
2018-07-10T02:49:09.145Z,1011.56
2018-07-10T02:50:09.144Z,1011.60
2018-07-10T02:51:09.141Z,1011.58
2018-07-10T02:52:09.144Z,1011.61
2018-07-10T02:53:09.147Z,1011.60
2018-07-10T02:54:09.143Z,1011.63
2018-07-10T02:55:09.160Z,1011.66
2018-07-10T02:56:09.141Z,1011.62
2018-07-10T02:57:09.142Z,1011.66
2018-07-10T02:58:09.134Z,1011.70
2018-07-10T02:59:09.138Z,1011.68
2018-07-10T03:00:09.143Z,1011.70
2018-07-10T03:01:09.140Z,1011.69
2018-07-10T03:02:09.139Z,1011.67
2018-07-10T03:03:09.140Z,1011.70
2018-07-10T03:04:09.140Z,1011.70
2018-07-10T03:05:09.138Z,1011.70
2018-07-10T03:06:09.146Z,1011.72
2018-07-10T03:07:09.138Z,1011.75
2018-07-10T03:08:09.137Z,1011.76
2018-07-10T03:09:09.140Z,1011.78
2018-07-10T03:10:09.156Z,1011.74
2018-07-10T03:11:09.164Z,1011.71
2018-07-10T03:12:09.135Z,1011.64
2018-07-10T03:13:09.130Z,1011.65
2018-07-10T03:14:09.131Z,1011.63
2018-07-10T03:15:09.137Z,1011.59
2018-07-10T03:16:09.132Z,1011.62
2018-07-10T03:17:09.133Z,1011.61
2018-07-10T03:18:09.130Z,1011.66
2018-07-10T03:19:09.130Z,1011.66
2018-07-10T03:20:09.131Z,1011.67
2018-07-10T03:21:09.130Z,1011.68
2018-07-10T03:22:09.138Z,1011.66
2018-07-10T03:23:09.129Z,1011.68
2018-07-10T03:24:09.129Z,1011.67
2018-07-10T03:25:09.127Z,1011.66
2018-07-10T03:26:09.127Z,1011.67
2018-07-10T03:27:09.121Z,1011.63
2018-07-10T03:28:09.124Z,1011.65
2018-07-10T03:29:09.123Z,1011.61
2018-07-10T03:30:09.121Z,1011.60
2018-07-10T03:31:09.122Z,1011.57
2018-07-10T03:32:09.123Z,1011.57
2018-07-10T03:33:09.120Z,1011.58
2018-07-10T03:34:09.119Z,1011.59
2018-07-10T03:35:09.121Z,1011.56
2018-07-10T03:36:09.118Z,1011.59
2018-07-10T03:37:09.119Z,1011.50
2018-07-10T03:38:09.116Z,1011.54
2018-07-10T03:39:09.114Z,1011.49
2018-07-10T03:40:09.114Z,1011.48
2018-07-10T03:41:09.113Z,1011.43
2018-07-10T03:42:09.113Z,1011.45
2018-07-10T03:43:09.110Z,1011.41
2018-07-10T03:44:09.111Z,1011.42
2018-07-10T03:45:09.112Z,1011.44
2018-07-10T03:46:09.110Z,1011.43
2018-07-10T03:47:09.109Z,1011.45
2018-07-10T03:48:09.114Z,1011.42
2018-07-10T03:49:09.111Z,1011.42
2018-07-10T03:50:09.102Z,1011.40
2018-07-10T03:51:09.105Z,1011.43
2018-07-10T03:52:09.105Z,1011.46
2018-07-10T03:53:09.104Z,1011.44
2018-07-10T03:54:09.101Z,1011.45
2018-07-10T03:55:09.101Z,1011.46
2018-07-10T03:56:09.102Z,1011.48
2018-07-10T03:57:09.101Z,1011.47
2018-07-10T03:58:09.099Z,1011.48
2018-07-10T03:59:09.104Z,1011.48
2018-07-10T04:00:09.098Z,1011.51
2018-07-10T04:01:09.100Z,1011.54
2018-07-10T04:02:09.098Z,1011.58
2018-07-10T04:03:09.107Z,1011.59
2018-07-10T04:04:09.096Z,1011.58
2018-07-10T04:05:09.097Z,1011.60
2018-07-10T04:06:09.094Z,1011.59
2018-07-10T04:07:09.097Z,1011.61
2018-07-10T04:08:09.089Z,1011.64
2018-07-10T04:09:09.116Z,1011.64
2018-07-10T04:10:09.093Z,1011.67
2018-07-10T04:11:09.092Z,1011.67
2018-07-10T04:12:09.093Z,1011.71
2018-07-10T04:13:09.090Z,1011.72
2018-07-10T04:14:09.088Z,1011.73
2018-07-10T04:15:09.089Z,1011.75
2018-07-10T04:16:09.090Z,1011.72
2018-07-10T04:17:09.086Z,1011.70
2018-07-10T04:18:09.085Z,1011.68
2018-07-10T04:19:09.084Z,1011.70
2018-07-10T04:20:09.082Z,1011.71
2018-07-10T04:21:09.084Z,1011.71
2018-07-10T04:22:09.081Z,1011.73
2018-07-10T04:23:09.080Z,1011.77
2018-07-10T04:24:09.084Z,1011.72
2018-07-10T04:25:09.084Z,1011.75
2018-07-10T04:26:09.084Z,1011.75
2018-07-10T04:27:09.080Z,1011.74
2018-07-10T04:28:09.078Z,1011.75
2018-07-10T04:29:09.079Z,1011.73
2018-07-10T04:30:09.081Z,1011.74
2018-07-10T04:31:09.085Z,1011.75
2018-07-10T04:32:09.077Z,1011.76
2018-07-10T04:33:09.075Z,1011.75
2018-07-10T04:34:09.075Z,1011.78
2018-07-10T04:35:09.074Z,1011.77
2018-07-10T04:36:09.071Z,1011.75
2018-07-10T04:37:09.074Z,1011.74
2018-07-10T04:38:09.072Z,1011.69
2018-07-10T04:39:09.072Z,1011.64
2018-07-10T04:40:09.074Z,1011.63
2018-07-10T04:41:09.071Z,1011.66
2018-07-10T04:42:09.070Z,1011.71
2018-07-10T04:43:09.068Z,1011.73
2018-07-10T04:44:09.075Z,1011.74
2018-07-10T04:45:09.105Z,1011.71
2018-07-10T04:46:09.064Z,1011.72
2018-07-10T04:47:09.067Z,1011.78
2018-07-10T04:48:09.068Z,1011.79
2018-07-10T04:49:09.164Z,1011.77
2018-07-10T04:50:09.067Z,1011.76
2018-07-10T04:51:09.068Z,1011.79
2018-07-10T04:52:09.063Z,1011.79
2018-07-10T04:53:09.064Z,1011.81
2018-07-10T04:54:09.060Z,1011.80
2018-07-10T04:55:09.060Z,1011.84
2018-07-10T04:56:09.062Z,1011.86
2018-07-10T04:57:09.059Z,1011.88
2018-07-10T04:58:09.064Z,1011.89
2018-07-10T04:59:09.058Z,1011.88
2018-07-10T05:00:09.060Z,1011.87
2018-07-10T05:01:09.057Z,1011.88
2018-07-10T05:02:09.057Z,1011.89
2018-07-10T05:03:09.056Z,1011.85
2018-07-10T05:04:09.060Z,1011.82
2018-07-10T05:05:09.055Z,1011.82
2018-07-10T05:06:09.057Z,1011.78
2018-07-10T05:07:09.061Z,1011.78
2018-07-10T05:08:09.053Z,1011.82
2018-07-10T05:09:09.052Z,1011.82
2018-07-10T05:10:09.055Z,1011.86
2018-07-10T05:11:09.052Z,1011.89
2018-07-10T05:12:09.154Z,1011.88
2018-07-10T05:13:09.050Z,1011.88
2018-07-10T05:14:09.050Z,1011.85
2018-07-10T05:15:09.050Z,1011.83
2018-07-10T05:16:09.080Z,1011.81
2018-07-10T05:17:09.045Z,1011.81
2018-07-10T05:18:09.051Z,1011.82
2018-07-10T05:19:09.049Z,1011.78
2018-07-10T05:20:09.049Z,1011.75
2018-07-10T05:21:09.048Z,1011.71
2018-07-10T05:22:09.050Z,1011.70
2018-07-10T05:23:09.120Z,1011.71
2018-07-10T05:24:09.049Z,1011.68
2018-07-10T05:25:09.047Z,1011.71
2018-07-10T05:26:09.053Z,1011.69
2018-07-10T05:27:09.040Z,1011.66
2018-07-10T05:28:09.046Z,1011.72
2018-07-10T05:29:09.124Z,1011.75
2018-07-10T05:30:09.044Z,1011.81
2018-07-10T05:31:09.044Z,1011.88
2018-07-10T05:32:09.043Z,1011.90
2018-07-10T05:33:09.040Z,1011.90
2018-07-10T05:34:09.043Z,1011.85
2018-07-10T05:35:09.042Z,1011.86
2018-07-10T05:36:09.040Z,1011.84
2018-07-10T05:37:09.085Z,1011.87
2018-07-10T05:38:09.042Z,1011.87
2018-07-10T05:39:09.039Z,1011.90
2018-07-10T05:40:09.042Z,1011.90
2018-07-10T05:41:09.048Z,1011.88
2018-07-10T05:42:09.040Z,1011.90
2018-07-10T05:43:09.036Z,1011.89
2018-07-10T05:44:09.038Z,1011.91
2018-07-10T05:45:09.039Z,1011.90
2018-07-10T05:46:09.036Z,1011.88
2018-07-10T05:47:09.036Z,1011.91
2018-07-10T05:48:09.038Z,1011.89
2018-07-10T05:49:09.042Z,1011.89
2018-07-10T05:50:09.038Z,1011.91
2018-07-10T05:51:09.042Z,1011.92
2018-07-10T05:52:09.084Z,1011.87
2018-07-10T05:53:09.038Z,1011.84
2018-07-10T05:54:09.037Z,1011.83
2018-07-10T05:55:09.041Z,1011.82
2018-07-10T05:56:09.047Z,1011.84
2018-07-10T05:57:09.042Z,1011.84
2018-07-10T05:58:09.037Z,1011.82
2018-07-10T05:59:09.038Z,1011.82
2018-07-10T06:00:09.039Z,1011.84
2018-07-10T06:01:09.034Z,1011.90
2018-07-10T06:02:09.037Z,1011.91
2018-07-10T06:03:09.038Z,1011.90
2018-07-10T06:04:09.035Z,1011.98
2018-07-10T06:05:09.040Z,1011.99
2018-07-10T06:06:09.038Z,1012.00
2018-07-10T06:07:09.033Z,1012.00
2018-07-10T06:08:09.035Z,1012.01
2018-07-10T06:09:09.040Z,1012.02
2018-07-10T06:10:09.061Z,1012.04
2018-07-10T06:11:09.045Z,1012.08
2018-07-10T06:12:09.033Z,1012.08
2018-07-10T06:13:09.038Z,1012.08
2018-07-10T06:14:09.103Z,1012.02
2018-07-10T06:15:09.037Z,1012.04
2018-07-10T06:16:09.087Z,1012.04
2018-07-10T06:17:09.038Z,1012.08
2018-07-10T06:18:09.036Z,1012.04
2018-07-10T06:19:09.037Z,1012.02
2018-07-10T06:20:09.037Z,1012.02
2018-07-10T06:21:09.037Z,1012.00
2018-07-10T06:22:09.038Z,1012.03
2018-07-10T06:23:09.038Z,1012.02
2018-07-10T06:24:09.042Z,1012.03
2018-07-10T06:25:09.038Z,1012.04
2018-07-10T06:26:09.045Z,1012.07
2018-07-10T06:27:09.039Z,1012.03
2018-07-10T06:28:09.040Z,1012.08
2018-07-10T06:29:09.038Z,1012.04
2018-07-10T06:30:09.041Z,1012.03
2018-07-10T06:31:09.040Z,1012.06
2018-07-10T06:32:09.035Z,1012.08
2018-07-10T06:33:09.045Z,1012.07
2018-07-10T06:34:09.041Z,1012.10
2018-07-10T06:35:09.041Z,1012.09
2018-07-10T06:36:09.042Z,1012.08
2018-07-10T06:37:09.040Z,1012.07
2018-07-10T06:38:09.041Z,1012.04
2018-07-10T06:39:09.046Z,1012.09
2018-07-10T06:40:09.045Z,1012.08
2018-07-10T06:41:09.045Z,1012.12
2018-07-10T06:42:09.049Z,1012.04
2018-07-10T06:43:09.045Z,1012.09
2018-07-10T06:44:09.045Z,1012.04
2018-07-10T06:45:09.048Z,1012.04
2018-07-10T06:46:09.046Z,1012.05
2018-07-10T06:47:09.046Z,1012.08
2018-07-10T06:48:09.051Z,1012.15
2018-07-10T06:49:09.048Z,1012.14
2018-07-10T06:50:09.047Z,1012.13
2018-07-10T06:51:09.052Z,1012.14
2018-07-10T06:52:09.052Z,1012.12
2018-07-10T06:53:09.406Z,1012.10
2018-07-10T06:54:09.051Z,1012.08
2018-07-10T06:55:09.051Z,1012.11
2018-07-10T06:56:09.052Z,1012.16
2018-07-10T06:57:09.057Z,1012.15
2018-07-10T06:58:09.055Z,1012.15
2018-07-10T06:59:09.087Z,1012.17
2018-07-10T07:00:09.062Z,1012.27
2018-07-10T07:01:09.058Z,1012.25
2018-07-10T07:02:09.065Z,1012.19
2018-07-10T07:03:09.106Z,1012.21
2018-07-10T07:04:09.065Z,1012.08
2018-07-10T07:05:09.064Z,1012.10
2018-07-10T07:06:09.066Z,1012.10
2018-07-10T07:07:09.070Z,1012.12
2018-07-10T07:08:09.073Z,1012.15
2018-07-10T07:09:09.073Z,1012.10
2018-07-10T07:10:09.074Z,1012.09
2018-07-10T07:11:09.076Z,1012.09
2018-07-10T07:12:09.081Z,1012.07
2018-07-10T07:13:09.089Z,1012.10
2018-07-10T07:14:09.092Z,1012.07
2018-07-10T07:15:09.088Z,1012.10
2018-07-10T07:16:09.091Z,1012.15
2018-07-10T07:17:09.095Z,1012.22
2018-07-10T07:18:09.102Z,1012.13
2018-07-10T07:19:09.103Z,1012.15
2018-07-10T07:20:09.102Z,1012.20
2018-07-10T07:21:09.106Z,1012.17
2018-07-10T07:22:09.116Z,1012.19
2018-07-10T07:23:09.116Z,1012.17
2018-07-10T07:24:09.114Z,1012.07
2018-07-10T07:25:09.120Z,1012.06
2018-07-10T07:26:09.122Z,1012.03
2018-07-10T07:27:09.126Z,1012.06
2018-07-10T07:28:09.130Z,1012.08
2018-07-10T07:29:09.133Z,1012.08
2018-07-10T07:30:09.136Z,1012.11
2018-07-10T07:31:09.140Z,1012.11
2018-07-10T07:32:09.145Z,1012.10
2018-07-10T07:33:09.149Z,1012.12
2018-07-10T07:34:09.331Z,1012.10
2018-07-10T07:35:09.157Z,1012.11
2018-07-10T07:36:09.160Z,1012.12
2018-07-10T07:37:09.160Z,1012.18
2018-07-10T07:38:09.164Z,1012.18
2018-07-10T07:39:09.167Z,1012.18
2018-07-10T07:40:09.177Z,1012.20
2018-07-10T07:41:09.180Z,1012.25
2018-07-10T07:42:09.176Z,1012.17
2018-07-10T07:43:09.181Z,1012.17
2018-07-10T07:44:09.262Z,1012.21
2018-07-10T07:45:09.188Z,1012.18
2018-07-10T07:46:09.193Z,1012.20
2018-07-10T07:47:09.204Z,1012.18
2018-07-10T07:48:09.206Z,1012.16
2018-07-10T07:49:09.207Z,1012.15
2018-07-10T07:50:09.215Z,1012.16
2018-07-10T07:51:09.216Z,1012.16
2018-07-10T07:52:09.221Z,1012.14
2018-07-10T07:53:09.226Z,1012.15
2018-07-10T07:54:09.231Z,1012.15
2018-07-10T07:55:09.237Z,1012.17
2018-07-10T07:56:09.244Z,1012.18
2018-07-10T07:57:09.250Z,1012.20
2018-07-10T07:58:09.254Z,1012.19
2018-07-10T07:59:09.262Z,1012.21
2018-07-10T08:00:09.269Z,1012.23
2018-07-10T08:01:09.272Z,1012.24
2018-07-10T08:02:09.281Z,1012.23
2018-07-10T08:03:09.288Z,1012.21
2018-07-10T08:04:09.293Z,1012.23
2018-07-10T08:05:09.299Z,1012.23
2018-07-10T08:06:09.307Z,1012.23
2018-07-10T08:07:09.313Z,1012.24
2018-07-10T08:08:09.319Z,1012.24
2018-07-10T08:09:09.329Z,1012.10
2018-07-10T08:10:09.334Z,1012.23
2018-07-10T08:11:09.338Z,1012.22
2018-07-10T08:12:09.345Z,1012.24
2018-07-10T08:13:09.436Z,1012.28
2018-07-10T08:14:09.367Z,1012.22
2018-07-10T08:15:09.369Z,1012.25
2018-07-10T08:16:09.380Z,1012.25
2018-07-10T08:17:09.386Z,1012.18
2018-07-10T08:18:09.391Z,1012.24
2018-07-10T08:19:09.424Z,1012.30
2018-07-10T08:20:09.408Z,1012.24
2018-07-10T08:21:09.416Z,1012.27
2018-07-10T08:22:09.422Z,1012.28
2018-07-10T08:23:09.438Z,1012.26
2018-07-10T08:24:09.442Z,1012.29
2018-07-10T08:25:09.449Z,1012.22
2018-07-10T08:26:09.456Z,1012.11
2018-07-10T08:27:09.476Z,1012.07
2018-07-10T08:28:09.470Z,1012.12
2018-07-10T08:29:09.481Z,1012.10
2018-07-10T08:30:09.488Z,1012.13
2018-07-10T08:31:09.497Z,1012.18
2018-07-10T08:32:09.504Z,1012.12
2018-07-10T08:33:09.512Z,1012.18
2018-07-10T08:34:09.520Z,1012.05
2018-07-10T08:35:09.526Z,1012.08
2018-07-10T08:36:09.536Z,1012.05
2018-07-10T08:37:09.543Z,1012.07
2018-07-10T08:38:09.549Z,1012.08
2018-07-10T08:39:09.560Z,1012.07
2018-07-10T08:40:09.564Z,1012.07
2018-07-10T08:41:09.572Z,1012.09
2018-07-10T08:42:09.577Z,1012.12
2018-07-10T08:43:09.643Z,1012.10
2018-07-10T08:44:09.592Z,1012.10
2018-07-10T08:45:09.598Z,1012.09
2018-07-10T08:46:09.605Z,1012.06
2018-07-10T08:47:09.611Z,1012.06
2018-07-10T08:48:09.622Z,1012.00
2018-07-10T08:49:09.623Z,1012.01
2018-07-10T08:50:09.626Z,1012.05
2018-07-10T08:51:09.631Z,1012.02
2018-07-10T08:52:09.636Z,1012.17
2018-07-10T08:53:09.642Z,1012.10
2018-07-10T08:54:09.647Z,1012.09
2018-07-10T08:55:09.652Z,1012.15
2018-07-10T08:56:09.656Z,1012.09
2018-07-10T08:57:09.663Z,1012.08
2018-07-10T08:58:09.665Z,1012.08
2018-07-10T08:59:09.673Z,1012.06
2018-07-10T09:00:09.679Z,1012.01
2018-07-10T09:01:09.682Z,1012.03
2018-07-10T09:02:09.690Z,1012.03
2018-07-10T09:03:09.693Z,1011.99
2018-07-10T09:04:09.697Z,1011.96
2018-07-10T09:05:09.705Z,1012.00
2018-07-10T09:06:09.709Z,1012.00
2018-07-10T09:07:09.718Z,1012.00
2018-07-10T09:08:09.725Z,1012.04
2018-07-10T09:09:09.718Z,1011.97
2018-07-10T09:10:09.728Z,1011.91
2018-07-10T09:11:09.735Z,1011.97
2018-07-10T09:12:09.737Z,1011.92
2018-07-10T09:13:09.740Z,1011.91
2018-07-10T09:14:09.743Z,1011.94
2018-07-10T09:15:09.748Z,1011.91
2018-07-10T09:16:09.753Z,1011.93
2018-07-10T09:17:09.757Z,1011.92
2018-07-10T09:18:09.762Z,1011.92
2018-07-10T09:19:09.766Z,1011.92
2018-07-10T09:20:09.771Z,1011.89
2018-07-10T09:21:09.774Z,1011.92
2018-07-10T09:22:09.779Z,1011.89
2018-07-10T09:23:09.799Z,1011.86
2018-07-10T09:24:09.791Z,1011.87
2018-07-10T09:25:09.789Z,1011.92
2018-07-10T09:26:09.794Z,1011.95
2018-07-10T09:27:09.802Z,1011.90
2018-07-10T09:28:09.804Z,1011.85
2018-07-10T09:29:09.810Z,1011.88
2018-07-10T09:30:09.815Z,1011.89
2018-07-10T09:31:09.818Z,1011.91
2018-07-10T09:32:09.825Z,1011.89
2018-07-10T09:33:09.829Z,1011.92
2018-07-10T09:34:09.834Z,1011.91
2018-07-10T09:35:09.839Z,1011.90
2018-07-10T09:36:09.848Z,1011.88
2018-07-10T09:37:09.846Z,1011.90
2018-07-10T09:38:09.889Z,1011.86
2018-07-10T09:39:09.853Z,1011.85
2018-07-10T09:40:09.855Z,1011.81
2018-07-10T09:41:09.864Z,1011.81
2018-07-10T09:42:09.866Z,1011.81
2018-07-10T09:43:09.870Z,1011.82
2018-07-10T09:44:09.922Z,1011.82
2018-07-10T09:45:09.880Z,1011.82
2018-07-10T09:46:09.880Z,1011.80
2018-07-10T09:47:09.889Z,1011.79
2018-07-10T09:48:09.896Z,1011.78
2018-07-10T09:49:09.900Z,1011.74
2018-07-10T09:50:09.902Z,1011.75
2018-07-10T09:51:09.985Z,1011.75
2018-07-10T09:52:09.915Z,1011.71
2018-07-10T09:53:09.952Z,1011.72
2018-07-10T09:54:09.932Z,1011.70
2018-07-10T09:55:09.956Z,1011.73
2018-07-10T09:56:09.929Z,1011.74
2018-07-10T09:57:09.936Z,1011.72
2018-07-10T09:58:09.936Z,1011.75
2018-07-10T09:59:09.942Z,1011.71
2018-07-10T10:00:09.945Z,1011.70
2018-07-10T10:01:09.952Z,1011.69
2018-07-10T10:02:09.957Z,1011.62
2018-07-10T10:03:09.958Z,1011.66
2018-07-10T10:04:09.965Z,1011.67
2018-07-10T10:05:09.969Z,1011.71
2018-07-10T10:06:09.971Z,1011.66
2018-07-10T10:07:09.975Z,1011.68
2018-07-10T10:08:09.978Z,1011.65
2018-07-10T10:09:09.979Z,1011.62
2018-07-10T10:10:09.990Z,1011.61
2018-07-10T10:11:09.990Z,1011.63
2018-07-10T10:12:09.994Z,1011.67
2018-07-10T10:13:09.998Z,1011.63
2018-07-10T10:14:10.004Z,1011.64
2018-07-10T10:15:10.007Z,1011.68
2018-07-10T10:16:10.013Z,1011.67
2018-07-10T10:17:10.012Z,1011.71
2018-07-10T10:18:10.019Z,1011.68
2018-07-10T10:19:10.020Z,1011.68
2018-07-10T10:20:10.024Z,1011.69
2018-07-10T10:21:10.027Z,1011.67
2018-07-10T10:22:10.030Z,1011.65
2018-07-10T10:23:10.033Z,1011.62
2018-07-10T10:24:10.037Z,1011.63
2018-07-10T10:25:10.042Z,1011.62
2018-07-10T10:26:10.054Z,1011.63
2018-07-10T10:27:10.048Z,1011.66
2018-07-10T10:28:10.060Z,1011.65
2018-07-10T10:29:10.053Z,1011.61
2018-07-10T10:30:10.057Z,1011.57
2018-07-10T10:31:10.061Z,1011.58
2018-07-10T10:32:10.062Z,1011.56
2018-07-10T10:33:10.067Z,1011.58
2018-07-10T10:34:10.074Z,1011.64
2018-07-10T10:35:10.074Z,1011.64
2018-07-10T10:36:10.078Z,1011.64
2018-07-10T10:37:10.081Z,1011.62
2018-07-10T10:38:10.085Z,1011.60
2018-07-10T10:39:10.086Z,1011.59
2018-07-10T10:40:10.091Z,1011.58
2018-07-10T10:41:10.092Z,1011.61
2018-07-10T10:42:10.097Z,1011.58
2018-07-10T10:43:10.102Z,1011.60
2018-07-10T10:44:10.108Z,1011.62
2018-07-10T10:45:10.108Z,1011.58
2018-07-10T10:46:10.112Z,1011.59
2018-07-10T10:47:10.115Z,1011.58
2018-07-10T10:48:10.119Z,1011.55
2018-07-10T10:49:10.128Z,1011.58
2018-07-10T10:50:10.127Z,1011.57
2018-07-10T10:51:10.322Z,1011.59
2018-07-10T10:52:10.132Z,1011.58
2018-07-10T10:53:10.139Z,1011.56
2018-07-10T10:54:10.140Z,1011.58
2018-07-10T10:55:10.143Z,1011.59
2018-07-10T10:56:10.146Z,1011.60
2018-07-10T10:57:10.151Z,1011.59
2018-07-10T10:58:10.153Z,1011.57
2018-07-10T10:59:10.160Z,1011.58
2018-07-10T11:00:10.168Z,1011.57
2018-07-10T11:01:10.169Z,1011.59
2018-07-10T11:02:10.169Z,1011.54
2018-07-10T11:03:10.216Z,1011.55
2018-07-10T11:04:10.174Z,1011.53
2018-07-10T11:05:10.179Z,1011.52
2018-07-10T11:06:10.182Z,1011.53
2018-07-10T11:07:10.186Z,1011.57
2018-07-10T11:08:10.189Z,1011.53
2018-07-10T11:09:10.192Z,1011.56
2018-07-10T11:10:10.190Z,1011.53
2018-07-10T11:11:10.196Z,1011.50
2018-07-10T11:12:10.199Z,1011.50
2018-07-10T11:13:10.248Z,1011.51
2018-07-10T11:14:10.207Z,1011.49
2018-07-10T11:15:10.214Z,1011.49
2018-07-10T11:16:10.219Z,1011.49
2018-07-10T11:17:10.919Z,1011.48
2018-07-10T11:18:10.225Z,1011.49
2018-07-10T11:19:10.228Z,1011.49
2018-07-10T11:20:10.230Z,1011.51
2018-07-10T11:21:10.238Z,1011.54
2018-07-10T11:22:10.244Z,1011.53
2018-07-10T11:23:10.242Z,1011.54
2018-07-10T11:24:10.252Z,1011.57
2018-07-10T11:25:10.251Z,1011.59
2018-07-10T11:26:10.253Z,1011.57
2018-07-10T11:27:10.257Z,1011.54
2018-07-10T11:28:10.259Z,1011.55
2018-07-10T11:29:10.263Z,1011.56
2018-07-10T11:30:10.269Z,1011.55
2018-07-10T11:31:10.274Z,1011.58
2018-07-10T11:32:10.280Z,1011.59
2018-07-10T11:33:10.279Z,1011.53
2018-07-10T11:34:10.282Z,1011.55
2018-07-10T11:35:10.285Z,1011.52
2018-07-10T11:36:10.289Z,1011.53
2018-07-10T11:37:10.292Z,1011.56
2018-07-10T11:38:10.293Z,1011.54
2018-07-10T11:39:10.373Z,1011.59
2018-07-10T11:40:10.304Z,1011.55
2018-07-10T11:41:10.306Z,1011.54
2018-07-10T11:42:10.308Z,1011.58
2018-07-10T11:43:10.310Z,1011.54
2018-07-10T11:44:10.308Z,1011.57
2018-07-10T11:45:10.316Z,1011.61
2018-07-10T11:46:10.323Z,1011.63
2018-07-10T11:47:10.322Z,1011.65
2018-07-10T11:48:10.329Z,1011.65
2018-07-10T11:49:10.441Z,1011.67
2018-07-10T11:50:10.332Z,1011.65
2018-07-10T11:51:10.333Z,1011.62
2018-07-10T11:52:10.339Z,1011.68
2018-07-10T11:53:10.362Z,1011.69
2018-07-10T11:54:10.344Z,1011.69
2018-07-10T11:55:10.348Z,1011.69
2018-07-10T11:56:10.358Z,1011.66
2018-07-10T11:57:10.361Z,1011.65
2018-07-10T11:58:10.357Z,1011.65
2018-07-10T11:59:10.359Z,1011.66
2018-07-10T12:00:10.367Z,1011.61
2018-07-10T12:01:10.372Z,1011.64
2018-07-10T12:02:10.366Z,1011.62
2018-07-10T12:03:10.373Z,1011.62
2018-07-10T12:04:10.375Z,1011.61
2018-07-10T12:05:10.383Z,1011.62